createdAt,value
2019-05-21T00:00:13.975Z,12.69
2019-05-21T00:02:42.381Z,12.71
2019-05-21T00:05:10.928Z,12.70
2019-05-21T00:07:39.343Z,12.71
2019-05-21T00:10:08.372Z,12.73
2019-05-21T00:12:36.778Z,12.74
2019-05-21T00:15:05.610Z,12.73
2019-05-21T00:17:34.107Z,12.72
2019-05-21T00:20:02.665Z,12.75
2019-05-21T00:22:31.099Z,12.75
2019-05-21T00:24:59.588Z,12.76
2019-05-21T00:27:28.198Z,12.77
2019-05-21T00:30:33.013Z,12.78
2019-05-21T00:33:37.524Z,12.78
2019-05-21T00:36:44.142Z,12.77
2019-05-21T00:39:48.783Z,12.78
2019-05-21T00:42:32.463Z,12.79
2019-05-21T00:45:00.992Z,12.80
2019-05-21T00:47:29.471Z,12.82
2019-05-21T00:49:57.875Z,12.82
2019-05-21T00:52:26.263Z,12.82
2019-05-21T00:54:54.731Z,12.83
2019-05-21T00:57:23.105Z,12.82
2019-05-21T00:59:51.507Z,12.78
2019-05-21T01:02:19.892Z,12.78
2019-05-21T01:05:00.362Z,12.80
2019-05-21T01:07:18.386Z,12.75
2019-05-21T01:09:46.807Z,12.79
2019-05-21T01:12:15.201Z,12.77
2019-05-21T01:14:43.663Z,12.80
2019-05-21T01:17:12.177Z,12.82
2019-05-21T01:19:40.567Z,12.80
2019-05-21T01:22:08.955Z,12.79
2019-05-21T01:24:37.343Z,12.78
2019-05-21T01:27:05.813Z,12.81
2019-05-21T01:29:34.274Z,12.81
2019-05-21T01:32:03.255Z,12.83
2019-05-21T01:34:31.898Z,12.82
2019-05-21T01:37:00.396Z,12.83
2019-05-21T01:39:28.821Z,12.83
2019-05-21T01:41:57.208Z,12.85
2019-05-21T01:44:26.481Z,12.84
2019-05-21T01:46:54.878Z,12.83
2019-05-21T01:49:23.276Z,12.84
2019-05-21T01:51:51.671Z,12.84
2019-05-21T01:54:20.091Z,12.84
2019-05-21T01:56:48.482Z,12.83
2019-05-21T01:59:16.869Z,12.85
2019-05-21T02:01:45.339Z,12.84
2019-05-21T02:04:14.107Z,12.84
2019-05-21T02:06:42.569Z,12.86
2019-05-21T02:09:10.965Z,12.88
2019-05-21T02:11:39.365Z,12.89
2019-05-21T02:14:07.752Z,12.92
2019-05-21T02:16:36.146Z,12.91
2019-05-21T02:19:04.601Z,12.91
2019-05-21T02:21:32.998Z,12.91
2019-05-21T02:24:01.399Z,12.91
2019-05-21T02:26:29.798Z,12.92
2019-05-21T02:28:58.181Z,12.91
2019-05-21T02:31:26.573Z,12.91
2019-05-21T02:33:54.959Z,12.90
2019-05-21T02:36:23.369Z,12.90
2019-05-21T02:38:51.817Z,12.92
2019-05-21T02:41:20.254Z,12.94
2019-05-21T02:43:48.665Z,12.91
2019-05-21T02:46:17.036Z,12.89
2019-05-21T02:48:45.477Z,12.88
2019-05-21T02:51:13.817Z,12.85
2019-05-21T02:53:42.189Z,12.84
2019-05-21T02:56:10.585Z,12.83
2019-05-21T02:58:38.975Z,12.82
2019-05-21T03:01:17.678Z,12.81
2019-05-21T03:03:44.642Z,12.79
2019-05-21T03:06:14.942Z,12.79
2019-05-21T03:08:43.216Z,12.79
2019-05-21T03:11:11.655Z,12.79
2019-05-21T03:13:40.041Z,12.79
2019-05-21T03:16:08.445Z,12.78
2019-05-21T03:18:36.831Z,12.76
2019-05-21T03:21:05.220Z,12.75
2019-05-21T03:23:33.601Z,12.77
2019-05-21T03:26:02.011Z,12.75
2019-05-21T03:28:30.387Z,12.74
2019-05-21T03:30:58.778Z,12.75
2019-05-21T03:33:27.165Z,12.73
2019-05-21T03:35:55.554Z,12.73
2019-05-21T03:38:23.945Z,12.75
2019-05-21T03:40:52.335Z,12.75
2019-05-21T03:43:20.712Z,12.75
2019-05-21T03:45:49.108Z,12.59
2019-05-21T03:48:17.498Z,12.74
2019-05-21T03:50:45.954Z,12.75
2019-05-21T03:53:14.347Z,12.74
2019-05-21T03:55:42.841Z,12.73
2019-05-21T03:58:11.233Z,12.75
2019-05-21T04:00:39.619Z,12.77
2019-05-21T04:03:08.952Z,12.78
2019-05-21T04:05:37.367Z,12.81
2019-05-21T04:08:05.735Z,12.82
2019-05-21T04:10:34.111Z,12.81
2019-05-21T04:13:08.757Z,12.84
2019-05-21T04:15:41.601Z,12.84
2019-05-21T04:18:14.537Z,12.85
2019-05-21T04:20:42.915Z,12.85
2019-05-21T04:23:11.311Z,12.84
2019-05-21T04:25:41.222Z,12.82
2019-05-21T04:28:09.612Z,12.82
2019-05-21T04:30:38.025Z,12.84
2019-05-21T04:33:06.423Z,12.83
2019-05-21T04:35:34.808Z,12.83
2019-05-21T04:38:03.270Z,12.79
2019-05-21T04:40:31.658Z,12.77
2019-05-21T04:43:02.137Z,12.76
2019-05-21T04:45:30.142Z,12.75
2019-05-21T04:47:58.536Z,12.76
2019-05-21T04:50:26.922Z,12.75
2019-05-21T04:52:55.316Z,12.74
2019-05-21T04:55:23.701Z,12.74
2019-05-21T04:57:52.091Z,12.73
2019-05-21T05:00:21.816Z,12.73
2019-05-21T05:02:50.198Z,12.71
2019-05-21T05:05:18.656Z,12.72
2019-05-21T05:07:47.087Z,12.73
2019-05-21T05:10:15.541Z,12.72
2019-05-21T05:12:43.928Z,12.71
2019-05-21T05:15:12.854Z,12.68
2019-05-21T05:17:41.350Z,12.71
2019-05-21T05:20:10.052Z,12.72
2019-05-21T05:22:38.510Z,12.71
2019-05-21T05:25:07.033Z,12.70
2019-05-21T05:27:35.469Z,12.67
2019-05-21T05:30:07.139Z,12.64
2019-05-21T05:32:35.534Z,12.63
2019-05-21T05:35:05.557Z,12.63
2019-05-21T05:37:43.351Z,12.63
2019-05-21T05:40:06.674Z,12.59
2019-05-21T05:42:35.139Z,12.61
2019-05-21T05:45:04.376Z,12.62
2019-05-21T05:47:32.814Z,12.63
2019-05-21T05:50:05.210Z,12.62
2019-05-21T05:52:33.595Z,12.61
2019-05-21T05:55:01.975Z,12.63
2019-05-21T05:57:30.358Z,12.61
2019-05-21T05:59:58.739Z,12.59
2019-05-21T06:02:27.124Z,12.57
2019-05-21T06:04:55.515Z,12.58
2019-05-21T06:07:23.922Z,12.56
2019-05-21T06:09:52.319Z,12.51
2019-05-21T06:12:20.788Z,12.49
2019-05-21T06:14:49.177Z,12.49
2019-05-21T06:17:17.599Z,12.46
2019-05-21T06:19:46.031Z,12.49
2019-05-21T06:22:14.442Z,12.50
2019-05-21T06:24:42.831Z,12.53
2019-05-21T06:27:11.231Z,12.57
2019-05-21T06:29:39.862Z,12.57
2019-05-21T06:32:08.243Z,12.58
2019-05-21T06:34:36.649Z,12.59
2019-05-21T06:37:05.292Z,12.59
2019-05-21T06:39:33.690Z,12.58
2019-05-21T06:42:02.090Z,12.57
2019-05-21T06:44:30.500Z,12.59
2019-05-21T06:46:58.902Z,12.57
2019-05-21T06:49:27.308Z,12.58
2019-05-21T06:51:55.961Z,12.60
2019-05-21T06:54:24.396Z,12.59
2019-05-21T06:56:52.804Z,12.55
2019-05-21T06:59:21.229Z,12.57
2019-05-21T07:01:49.620Z,12.57
2019-05-21T07:04:18.042Z,12.58
2019-05-21T07:06:46.474Z,12.57
2019-05-21T07:09:14.867Z,12.55
2019-05-21T07:11:43.264Z,12.55
2019-05-21T07:14:11.714Z,12.55
2019-05-21T07:16:40.126Z,12.54
2019-05-21T07:19:08.543Z,12.53
2019-05-21T07:21:36.946Z,12.54
2019-05-21T07:24:05.534Z,12.54
2019-05-21T07:26:34.017Z,12.54
2019-05-21T07:29:02.546Z,12.55
2019-05-21T07:31:30.989Z,12.54
2019-05-21T07:33:59.386Z,12.54
2019-05-21T07:36:27.802Z,12.57
2019-05-21T07:38:56.245Z,12.59
2019-05-21T07:41:24.667Z,12.61
2019-05-21T07:43:53.053Z,12.62
2019-05-21T07:46:21.489Z,12.66
2019-05-21T07:48:49.913Z,12.68
2019-05-21T07:51:18.332Z,12.68
2019-05-21T07:53:46.738Z,12.72
2019-05-21T07:56:15.179Z,12.74
2019-05-21T07:58:43.584Z,12.75
2019-05-21T08:01:12.064Z,12.70
2019-05-21T08:03:40.469Z,12.68
2019-05-21T08:06:08.886Z,12.70
2019-05-21T08:08:37.331Z,12.72
2019-05-21T08:11:05.906Z,12.75
2019-05-21T08:13:34.318Z,12.73
2019-05-21T08:16:02.704Z,12.70
2019-05-21T08:18:31.101Z,12.64
2019-05-21T08:20:59.485Z,12.61
2019-05-21T08:23:27.875Z,12.60
2019-05-21T08:25:56.259Z,12.61
2019-05-21T08:28:24.646Z,12.62
2019-05-21T08:30:53.041Z,12.62
2019-05-21T08:33:21.427Z,12.64
2019-05-21T08:35:49.813Z,12.67
2019-05-21T08:38:18.198Z,12.67
2019-05-21T08:40:46.582Z,12.70
2019-05-21T08:43:14.970Z,12.70
2019-05-21T08:45:43.430Z,12.73
2019-05-21T08:48:11.900Z,12.73
2019-05-21T08:50:41.022Z,12.76
2019-05-21T08:53:09.412Z,12.78
2019-05-21T08:55:37.796Z,12.83
2019-05-21T08:58:07.730Z,12.86
2019-05-21T09:00:36.354Z,12.89
2019-05-21T09:03:04.809Z,12.91
2019-05-21T09:05:33.193Z,12.92
2019-05-21T09:08:01.579Z,12.87
2019-05-21T09:10:29.962Z,12.83
2019-05-21T09:12:58.421Z,12.83
2019-05-21T09:15:26.813Z,12.86
2019-05-21T09:17:55.257Z,12.84
2019-05-21T09:20:23.716Z,12.91
2019-05-21T09:22:52.114Z,12.97
2019-05-21T09:25:20.500Z,12.97
2019-05-21T09:27:48.889Z,12.96
2019-05-21T09:30:17.548Z,12.93
2019-05-21T09:32:45.937Z,12.98
2019-05-21T09:35:14.460Z,12.99
2019-05-21T09:37:42.844Z,13.01
2019-05-21T09:40:11.971Z,13.02
2019-05-21T09:42:40.356Z,13.03
2019-05-21T09:45:09.589Z,13.00
2019-05-21T09:47:37.964Z,13.00
2019-05-21T09:50:08.589Z,13.03
2019-05-21T09:52:36.971Z,13.04
2019-05-21T09:55:06.198Z,13.05
2019-05-21T09:57:36.784Z,13.09
2019-05-21T10:00:12.189Z,13.09
2019-05-21T10:02:41.127Z,13.08
2019-05-21T10:05:09.673Z,13.05
2019-05-21T10:07:40.555Z,13.07
2019-05-21T10:10:08.427Z,13.09
2019-05-21T10:12:36.809Z,13.11
2019-05-21T10:15:06.932Z,13.14
2019-05-21T10:17:35.312Z,13.13
2019-05-21T10:20:05.132Z,13.13
2019-05-21T10:22:33.524Z,13.15
2019-05-21T10:25:01.901Z,13.13
2019-05-21T10:27:30.355Z,13.15
2019-05-21T10:29:58.761Z,13.21
2019-05-21T10:32:27.135Z,13.24
2019-05-21T10:34:55.529Z,13.10
2019-05-21T10:37:23.924Z,13.26
2019-05-21T10:39:52.305Z,13.30
2019-05-21T10:42:20.687Z,13.35
2019-05-21T10:44:49.110Z,13.39
2019-05-21T10:47:17.568Z,13.47
2019-05-21T10:49:45.951Z,13.55
2019-05-21T10:52:14.337Z,13.59
2019-05-21T10:54:42.724Z,13.66
2019-05-21T10:57:11.171Z,13.72
2019-05-21T10:59:39.583Z,13.88
2019-05-21T11:02:15.082Z,13.99
2019-05-21T11:04:53.841Z,14.06
2019-05-21T11:07:22.690Z,14.15
2019-05-21T11:09:51.231Z,14.24
2019-05-21T11:12:19.623Z,14.35
2019-05-21T11:14:48.082Z,14.40
2019-05-21T11:17:16.465Z,14.41
2019-05-21T11:19:44.868Z,14.45
2019-05-21T11:22:13.322Z,14.52
2019-05-21T11:24:42.045Z,14.53
2019-05-21T11:27:10.435Z,14.48
2019-05-21T11:29:38.831Z,14.40
2019-05-21T11:32:07.214Z,14.40
2019-05-21T11:34:35.675Z,14.39
2019-05-21T11:37:04.195Z,14.39
2019-05-21T11:39:32.637Z,14.42
2019-05-21T11:42:01.028Z,14.53
2019-05-21T11:44:29.415Z,14.62
2019-05-21T11:46:57.812Z,14.66
2019-05-21T11:49:26.186Z,14.76
2019-05-21T11:51:54.567Z,14.84
2019-05-21T11:54:23.029Z,14.89
2019-05-21T11:56:51.426Z,14.97
2019-05-21T11:59:19.881Z,15.03
2019-05-21T12:01:48.440Z,15.04
2019-05-21T12:04:16.842Z,15.06
2019-05-21T12:06:45.296Z,15.06
2019-05-21T12:09:13.679Z,15.01
2019-05-21T12:11:42.068Z,14.99
2019-05-21T12:14:10.458Z,15.00
2019-05-21T12:16:38.858Z,15.06
2019-05-21T12:19:08.466Z,15.08
2019-05-21T12:21:37.120Z,15.13
2019-05-21T12:24:05.504Z,15.19
2019-05-21T12:26:33.969Z,15.16
2019-05-21T12:29:02.373Z,15.13
2019-05-21T12:31:30.746Z,15.10
2019-05-21T12:33:59.132Z,15.14
2019-05-21T12:36:27.552Z,15.18
2019-05-21T12:39:11.541Z,15.26
2019-05-21T12:41:26.194Z,15.33
2019-05-21T12:43:54.584Z,15.21
2019-05-21T12:46:22.989Z,15.46
2019-05-21T12:48:51.371Z,15.52
2019-05-21T12:51:19.752Z,15.63
2019-05-21T12:53:48.135Z,15.66
2019-05-21T12:56:16.529Z,15.67
2019-05-21T12:58:44.937Z,15.69
2019-05-21T13:01:13.341Z,15.65
2019-05-21T13:03:41.742Z,15.48
2019-05-21T13:06:10.150Z,15.61
2019-05-21T13:08:38.540Z,15.64
2019-05-21T13:11:07.271Z,15.66
2019-05-21T13:13:35.665Z,15.68
2019-05-21T13:16:04.086Z,15.63
2019-05-21T13:18:32.537Z,15.62
2019-05-21T13:21:00.931Z,15.62
2019-05-21T13:23:29.313Z,15.65
2019-05-21T13:25:57.765Z,15.67
2019-05-21T13:28:26.152Z,15.74
2019-05-21T13:30:54.542Z,15.83
2019-05-21T13:33:22.997Z,15.93
2019-05-21T13:35:51.396Z,16.14
2019-05-21T13:38:19.845Z,16.30
2019-05-21T13:40:48.554Z,16.38
2019-05-21T13:43:16.931Z,16.38
2019-05-21T13:45:45.337Z,16.37
2019-05-21T13:48:13.715Z,16.33
2019-05-21T13:50:42.112Z,16.25
2019-05-21T13:53:10.504Z,16.17
2019-05-21T13:55:38.893Z,16.04
2019-05-21T13:58:07.341Z,15.95
2019-05-21T14:00:40.489Z,15.93
2019-05-21T14:03:09.113Z,15.92
2019-05-21T14:05:38.244Z,16.04
2019-05-21T14:08:06.627Z,16.19
2019-05-21T14:10:35.158Z,16.24
2019-05-21T14:13:03.730Z,16.24
2019-05-21T14:15:32.102Z,16.24
2019-05-21T14:18:00.567Z,16.24
2019-05-21T14:20:29.096Z,16.25
2019-05-21T14:22:57.487Z,16.22
2019-05-21T14:25:25.870Z,16.12
2019-05-21T14:27:54.295Z,16.05
2019-05-21T14:30:22.750Z,15.96
2019-05-21T14:32:51.187Z,15.89
2019-05-21T14:35:19.606Z,15.84
2019-05-21T14:37:47.991Z,15.82
2019-05-21T14:40:31.156Z,15.80
2019-05-21T14:42:59.431Z,15.82
2019-05-21T14:45:18.763Z,15.86
2019-05-21T14:47:47.147Z,15.88
2019-05-21T14:50:16.267Z,15.82
2019-05-21T14:52:44.677Z,15.74
2019-05-21T14:55:13.131Z,15.68
2019-05-21T14:57:41.512Z,15.66
2019-05-21T15:00:19.626Z,15.66
2019-05-21T15:02:48.492Z,15.69
2019-05-21T15:05:16.875Z,15.66
2019-05-21T15:07:49.312Z,15.64
2019-05-21T15:10:15.475Z,15.64
2019-05-21T15:12:43.832Z,15.61
2019-05-21T15:15:13.279Z,15.59
2019-05-21T15:17:41.729Z,15.50
2019-05-21T15:20:12.387Z,15.46
2019-05-21T15:22:40.774Z,15.46
2019-05-21T15:25:09.152Z,15.45
2019-05-21T15:27:37.621Z,15.48
2019-05-21T15:30:07.039Z,15.51
2019-05-21T15:32:35.433Z,15.50
2019-05-21T15:35:04.683Z,15.40
2019-05-21T15:37:33.067Z,15.41
2019-05-21T15:40:01.447Z,15.42
2019-05-21T15:42:30.105Z,15.46
2019-05-21T15:44:58.612Z,15.49
2019-05-21T15:47:26.992Z,15.50
2019-05-21T15:49:55.374Z,15.49
2019-05-21T15:52:23.768Z,15.50
2019-05-21T15:54:52.185Z,15.53
2019-05-21T15:57:20.571Z,15.56
2019-05-21T15:59:48.950Z,15.62
2019-05-21T16:02:17.344Z,15.66
2019-05-21T16:04:45.734Z,15.68
2019-05-21T16:07:14.177Z,15.72
2019-05-21T16:09:42.511Z,15.84
2019-05-21T16:12:10.955Z,16.03
2019-05-21T16:14:39.301Z,16.14
2019-05-21T16:17:07.770Z,16.23
2019-05-21T16:19:36.150Z,16.21
2019-05-21T16:22:04.609Z,16.20
2019-05-21T16:24:33.154Z,16.19
2019-05-21T16:27:01.543Z,16.15
2019-05-21T16:29:29.919Z,16.11
2019-05-21T16:31:58.314Z,16.05
2019-05-21T16:34:26.781Z,16.03
2019-05-21T16:36:55.164Z,16.06
2019-05-21T16:39:25.415Z,16.08
2019-05-21T16:41:53.858Z,16.14
2019-05-21T16:44:22.180Z,16.16
2019-05-21T16:46:50.758Z,16.19
2019-05-21T16:49:19.134Z,16.19
2019-05-21T16:51:47.518Z,16.13
2019-05-21T16:54:15.902Z,16.05
2019-05-21T16:56:44.284Z,15.99
2019-05-21T16:59:12.749Z,15.94
2019-05-21T17:01:41.142Z,15.92
2019-05-21T17:04:09.523Z,15.90
2019-05-21T17:06:37.911Z,15.88
2019-05-21T17:09:09.524Z,15.84
2019-05-21T17:11:37.917Z,15.82
2019-05-21T17:14:06.380Z,15.79
2019-05-21T17:16:34.764Z,15.77
2019-05-21T17:19:03.156Z,15.79
2019-05-21T17:21:31.539Z,15.78
2019-05-21T17:23:59.993Z,15.74
2019-05-21T17:26:28.450Z,15.71
2019-05-21T17:28:56.838Z,15.68
2019-05-21T17:31:25.299Z,15.64
2019-05-21T17:33:53.684Z,15.63
2019-05-21T17:36:22.065Z,15.61
2019-05-21T17:38:50.461Z,15.58
2019-05-21T17:41:18.847Z,15.57
2019-05-21T17:43:47.295Z,15.54
2019-05-21T17:46:15.679Z,15.52
2019-05-21T17:48:44.066Z,15.46
2019-05-21T17:51:12.439Z,15.42
2019-05-21T17:53:40.892Z,15.40
2019-05-21T17:56:09.353Z,15.37
2019-05-21T17:58:37.735Z,15.34
2019-05-21T18:01:10.741Z,15.32
2019-05-21T18:03:39.198Z,15.29
2019-05-21T18:06:08.738Z,15.26
2019-05-21T18:08:37.693Z,15.23
2019-05-21T18:11:06.074Z,15.22
2019-05-21T18:13:34.462Z,15.21
2019-05-21T18:16:03.437Z,15.17
2019-05-21T18:18:31.833Z,15.14
2019-05-21T18:21:00.352Z,15.13
2019-05-21T18:23:28.875Z,15.12
2019-05-21T18:25:57.502Z,15.12
2019-05-21T18:28:25.877Z,15.14
2019-05-21T18:30:54.266Z,15.13
2019-05-21T18:33:22.727Z,15.12
2019-05-21T18:35:51.116Z,15.09
2019-05-21T18:38:19.571Z,15.03
2019-05-21T18:40:48.180Z,15.00
2019-05-21T18:43:16.543Z,14.95
2019-05-21T18:45:45.687Z,14.92
2019-05-21T18:48:14.136Z,14.90
2019-05-21T18:50:42.593Z,14.88
2019-05-21T18:53:10.980Z,14.89
2019-05-21T18:55:39.365Z,14.86
2019-05-21T18:58:07.935Z,14.81
2019-05-21T19:00:36.320Z,14.80
2019-05-21T19:03:04.986Z,14.78
2019-05-21T19:05:33.377Z,14.75
2019-05-21T19:08:01.833Z,14.71
2019-05-21T19:10:30.318Z,14.67
2019-05-21T19:13:01.008Z,14.59
2019-05-21T19:15:28.945Z,14.55
2019-05-21T19:17:57.401Z,14.52
2019-05-21T19:20:25.867Z,14.50
2019-05-21T19:22:54.244Z,14.49
2019-05-21T19:25:22.707Z,14.47
2019-05-21T19:27:51.087Z,14.43
2019-05-21T19:30:19.692Z,14.40
2019-05-21T19:32:48.151Z,14.38
2019-05-21T19:35:16.590Z,14.37
2019-05-21T19:37:45.159Z,14.34
2019-05-21T19:40:14.098Z,14.32
2019-05-21T19:42:54.357Z,14.30
2019-05-21T19:45:14.269Z,14.29
2019-05-21T19:47:42.659Z,14.30
2019-05-21T19:50:13.783Z,14.24
2019-05-21T19:52:42.189Z,14.18
2019-05-21T19:55:10.953Z,14.23
2019-05-21T19:57:40.089Z,14.23
2019-05-21T20:00:09.658Z,14.21
2019-05-21T20:02:38.483Z,14.20
2019-05-21T20:05:07.675Z,14.18
2019-05-21T20:07:36.337Z,14.16
2019-05-21T20:10:06.919Z,14.16
2019-05-21T20:12:35.954Z,14.12
2019-05-21T20:15:06.701Z,14.12
2019-05-21T20:17:35.588Z,14.10
2019-05-21T20:20:06.028Z,14.09
2019-05-21T20:22:34.849Z,13.90
2019-05-21T20:25:04.587Z,13.89
2019-05-21T20:27:33.685Z,14.01
2019-05-21T20:30:12.197Z,13.99
2019-05-21T20:32:33.779Z,13.96
2019-05-21T20:35:02.175Z,13.94
2019-05-21T20:37:32.188Z,13.93
2019-05-21T20:40:01.066Z,13.92
2019-05-21T20:42:31.546Z,13.91
2019-05-21T20:45:00.214Z,13.91
2019-05-21T20:47:28.859Z,13.74
2019-05-21T20:49:57.450Z,13.87
2019-05-21T20:52:25.945Z,13.52
2019-05-21T20:54:56.330Z,13.84
2019-05-21T20:57:25.000Z,13.81
2019-05-21T20:59:53.564Z,13.80
2019-05-21T21:02:22.709Z,13.76
2019-05-21T21:04:52.280Z,13.77
2019-05-21T21:07:20.899Z,13.77
2019-05-21T21:09:49.619Z,13.77
2019-05-21T21:12:18.561Z,13.76
2019-05-21T21:14:48.565Z,13.76
2019-05-21T21:17:17.627Z,13.73
2019-05-21T21:19:46.140Z,13.72
2019-05-21T21:22:14.841Z,13.71
2019-05-21T21:24:43.453Z,13.71
2019-05-21T21:27:12.587Z,13.69
2019-05-21T21:29:41.050Z,13.68
2019-05-21T21:32:09.444Z,13.69
2019-05-21T21:34:37.831Z,13.69
2019-05-21T21:37:06.966Z,13.72
2019-05-21T21:39:35.443Z,13.71
2019-05-21T21:42:05.752Z,13.69
2019-05-21T21:44:34.595Z,13.68
2019-05-21T21:47:02.985Z,13.66
2019-05-21T21:49:32.617Z,13.64
2019-05-21T21:52:01.091Z,13.62
2019-05-21T21:54:30.452Z,13.62
2019-05-21T21:56:58.916Z,13.63
2019-05-21T21:59:27.309Z,13.62
2019-05-21T22:02:05.382Z,13.63
2019-05-21T22:04:34.775Z,13.62
2019-05-21T22:07:03.280Z,13.61
2019-05-21T22:09:31.851Z,13.61
2019-05-21T22:12:02.332Z,13.59
2019-05-21T22:14:31.673Z,13.58
2019-05-21T22:17:00.674Z,13.56
2019-05-21T22:19:29.401Z,13.56
2019-05-21T22:21:57.965Z,13.56
2019-05-21T22:24:26.356Z,13.57
2019-05-21T22:26:54.818Z,13.42
2019-05-21T22:29:23.329Z,13.58
2019-05-21T22:31:52.053Z,13.56
2019-05-21T22:34:20.817Z,13.53
2019-05-21T22:36:49.378Z,13.49
2019-05-21T22:39:19.592Z,13.46
2019-05-21T22:41:47.992Z,13.41
2019-05-21T22:44:16.437Z,13.38
2019-05-21T22:46:45.122Z,13.36
2019-05-21T22:49:13.531Z,13.35
2019-05-21T22:51:41.968Z,13.34
2019-05-21T22:54:10.451Z,13.32
2019-05-21T22:56:39.134Z,13.29
2019-05-21T22:59:07.526Z,13.28
2019-05-21T23:01:36.727Z,13.28
2019-05-21T23:04:05.572Z,13.28
2019-05-21T23:06:34.076Z,13.27
2019-05-21T23:09:02.548Z,13.27
2019-05-21T23:11:31.030Z,13.27
2019-05-21T23:13:59.425Z,13.26
2019-05-21T23:16:27.813Z,13.24
2019-05-21T23:18:56.642Z,13.23
2019-05-21T23:21:26.162Z,13.22
2019-05-21T23:23:56.106Z,13.20
2019-05-21T23:26:24.561Z,13.20
2019-05-21T23:28:53.140Z,13.20
2019-05-21T23:31:21.769Z,13.19
2019-05-21T23:33:50.366Z,13.19
2019-05-21T23:36:19.270Z,13.20
2019-05-21T23:38:49.153Z,13.20
2019-05-21T23:41:19.970Z,13.19
2019-05-21T23:43:49.539Z,13.20
2019-05-21T23:46:18.122Z,13.19
2019-05-21T23:48:46.575Z,13.17
2019-05-21T23:51:14.963Z,13.16
2019-05-21T23:53:43.702Z,13.14
2019-05-21T23:56:12.109Z,13.11
2019-05-21T23:58:40.522Z,13.08
